createdAt,value
2019-05-26T00:00:49.894Z,13.42
2019-05-26T00:02:49.889Z,13.43
2019-05-26T00:04:50.451Z,13.42
2019-05-26T00:06:50.711Z,13.39
2019-05-26T00:08:49.753Z,13.37
2019-05-26T00:10:49.869Z,13.34
2019-05-26T00:12:49.829Z,13.32
2019-05-26T00:14:49.955Z,13.31
2019-05-26T00:16:50.026Z,13.29
2019-05-26T00:18:50.138Z,13.28
2019-05-26T00:20:50.239Z,13.24
2019-05-26T00:22:50.332Z,13.19
2019-05-26T00:24:50.409Z,13.16
2019-05-26T00:26:50.538Z,13.15
2019-05-26T00:28:50.616Z,13.12
2019-05-26T00:30:49.808Z,13.09
2019-05-26T00:32:49.926Z,13.05
2019-05-26T00:34:50.385Z,12.96
2019-05-26T00:36:50.639Z,12.89
2019-05-26T00:38:50.698Z,12.78
2019-05-26T00:40:49.743Z,12.78
2019-05-26T00:42:49.840Z,12.63
2019-05-26T00:44:50.003Z,12.57
2019-05-26T00:46:50.264Z,12.49
2019-05-26T00:48:50.372Z,12.43
2019-05-26T00:50:50.478Z,12.40
2019-05-26T00:52:50.623Z,12.29
2019-05-26T00:54:49.904Z,12.19
2019-05-26T00:56:50.204Z,12.11
2019-05-26T00:58:50.323Z,12.05
2019-05-26T01:00:50.446Z,11.97
2019-05-26T01:02:50.538Z,11.93
2019-05-26T01:04:49.939Z,11.85
2019-05-26T01:06:50.099Z,11.82
2019-05-26T01:08:50.226Z,11.76
2019-05-26T01:10:50.359Z,11.73
2019-05-26T01:12:50.457Z,11.68
2019-05-26T01:14:49.809Z,11.64
2019-05-26T01:16:50.203Z,11.60
2019-05-26T01:18:50.249Z,11.55
2019-05-26T01:20:50.375Z,11.52
2019-05-26T01:22:54.311Z,11.46
2019-05-26T01:24:50.316Z,11.45
2019-05-26T01:26:50.396Z,11.42
2019-05-26T01:28:50.397Z,11.40
2019-05-26T01:30:50.476Z,11.40
2019-05-26T01:32:50.665Z,11.40
2019-05-26T01:34:50.289Z,11.40
2019-05-26T01:36:50.463Z,11.37
2019-05-26T01:38:50.502Z,11.35
2019-05-26T01:40:50.549Z,11.31
2019-05-26T01:42:50.548Z,11.24
2019-05-26T01:44:50.578Z,11.20
2019-05-26T01:46:49.698Z,11.15
2019-05-26T01:48:49.991Z,11.11
2019-05-26T01:50:50.015Z,11.08
2019-05-26T01:52:50.077Z,10.99
2019-05-26T01:54:50.168Z,10.96
2019-05-26T01:56:50.314Z,10.89
2019-05-26T01:58:50.416Z,10.85
2019-05-26T02:00:50.509Z,10.82
2019-05-26T02:02:50.491Z,10.75
2019-05-26T02:04:49.906Z,10.70
2019-05-26T02:06:50.139Z,10.68
2019-05-26T02:08:49.885Z,10.65
2019-05-26T02:10:49.964Z,10.61
2019-05-26T02:12:50.109Z,10.55
2019-05-26T02:14:50.235Z,10.50
2019-05-26T02:16:50.423Z,10.48
2019-05-26T02:18:50.440Z,10.48
2019-05-26T02:20:50.499Z,10.45
2019-05-26T02:22:50.590Z,10.42
2019-05-26T02:24:49.712Z,10.40
2019-05-26T02:26:50.007Z,10.33
2019-05-26T02:28:50.198Z,10.29
2019-05-26T02:30:50.360Z,10.23
2019-05-26T02:32:50.527Z,10.19
2019-05-26T02:34:49.968Z,10.19
2019-05-26T02:36:50.190Z,10.19
2019-05-26T02:39:03.795Z,10.10
2019-05-26T02:40:50.318Z,10.07
2019-05-26T02:42:50.491Z,10.04
2019-05-26T02:44:50.663Z,10.04
2019-05-26T02:46:49.865Z,10.01
2019-05-26T02:48:49.813Z,9.97
2019-05-26T02:50:49.948Z,9.91
2019-05-26T02:52:50.004Z,9.88
2019-05-26T02:54:50.094Z,9.88
2019-05-26T02:56:50.343Z,9.87
2019-05-26T02:58:50.482Z,9.85
2019-05-26T03:00:50.552Z,9.79
2019-05-26T03:02:49.827Z,9.77
2019-05-26T03:04:50.215Z,9.74
2019-05-26T03:06:50.389Z,9.74
2019-05-26T03:08:50.463Z,9.70
2019-05-26T03:10:50.551Z,9.70
2019-05-26T03:12:50.664Z,9.67
2019-05-26T03:14:49.706Z,9.65
2019-05-26T03:16:49.959Z,9.62
2019-05-26T03:18:50.072Z,9.57
2019-05-26T03:20:50.197Z,9.54
2019-05-26T03:22:50.282Z,9.52
2019-05-26T03:24:50.429Z,9.50
2019-05-26T03:26:50.518Z,9.47
2019-05-26T03:28:50.655Z,9.46
2019-05-26T03:30:49.870Z,9.45
2019-05-26T03:32:49.940Z,9.48
2019-05-26T03:34:50.374Z,9.48
2019-05-26T03:36:50.553Z,9.46
2019-05-26T03:38:50.611Z,9.46
2019-05-26T03:40:50.679Z,9.45
2019-05-26T03:42:49.811Z,9.44
2019-05-26T03:44:49.922Z,9.45
2019-05-26T03:46:50.173Z,9.45
2019-05-26T03:48:50.633Z,9.45
2019-05-26T03:50:49.849Z,9.44
2019-05-26T03:52:49.835Z,9.44
2019-05-26T03:54:49.949Z,9.45
2019-05-26T03:56:50.109Z,9.45
2019-05-26T03:58:50.281Z,9.44
2019-05-26T04:00:50.364Z,9.43
2019-05-26T04:02:50.424Z,9.42
2019-05-26T04:04:49.894Z,9.41
2019-05-26T04:06:50.120Z,9.41
2019-05-26T04:08:50.267Z,9.43
2019-05-26T04:10:50.391Z,9.50
2019-05-26T04:12:50.445Z,9.55
2019-05-26T04:14:50.527Z,9.62
2019-05-26T04:16:49.938Z,9.67
2019-05-26T04:18:49.990Z,9.71
2019-05-26T04:20:50.107Z,9.73
2019-05-26T04:22:50.279Z,9.79
2019-05-26T04:24:50.390Z,9.84
2019-05-26T04:26:50.645Z,9.90
2019-05-26T04:28:49.759Z,9.95
2019-05-26T04:30:49.839Z,10.01
2019-05-26T04:32:49.976Z,10.09
2019-05-26T04:34:50.409Z,10.14
2019-05-26T04:36:50.625Z,10.20
2019-05-26T04:38:49.805Z,10.28
2019-05-26T04:40:49.843Z,10.28
2019-05-26T04:42:49.963Z,10.45
2019-05-26T04:44:50.011Z,10.47
2019-05-26T04:46:50.221Z,10.59
2019-05-26T04:48:50.436Z,10.67
2019-05-26T04:50:50.601Z,10.78
2019-05-26T04:53:07.615Z,10.85
2019-05-26T04:54:50.482Z,10.97
2019-05-26T04:56:49.734Z,11.06
2019-05-26T04:58:49.849Z,11.18
2019-05-26T05:00:49.935Z,11.28
2019-05-26T05:02:50.040Z,11.38
2019-05-26T05:04:50.694Z,11.44
2019-05-26T05:06:49.935Z,11.50
2019-05-26T05:08:50.156Z,11.56
2019-05-26T05:10:50.173Z,11.66
2019-05-26T05:12:50.224Z,11.71
2019-05-26T05:14:50.319Z,11.81
2019-05-26T05:16:50.487Z,11.94
2019-05-26T05:18:50.532Z,11.98
2019-05-26T05:20:50.505Z,12.11
2019-05-26T05:22:50.673Z,12.19
2019-05-26T05:24:50.725Z,12.23
2019-05-26T05:26:49.905Z,12.29
2019-05-26T05:28:50.010Z,12.34
2019-05-26T05:30:50.045Z,12.49
2019-05-26T05:32:50.065Z,12.58
2019-05-26T05:34:50.603Z,12.68
2019-05-26T05:36:50.154Z,12.69
2019-05-26T05:38:50.132Z,12.76
2019-05-26T05:41:00.660Z,12.76
2019-05-26T05:42:50.603Z,13.02
2019-05-26T05:44:49.728Z,13.07
2019-05-26T05:46:49.842Z,13.07
2019-05-26T05:48:49.974Z,13.33
2019-05-26T05:50:49.999Z,13.40
2019-05-26T05:52:50.062Z,13.42
2019-05-26T05:54:50.052Z,13.40
2019-05-26T05:56:50.245Z,13.49
2019-05-26T05:58:50.354Z,13.66
2019-05-26T06:00:50.457Z,13.73
2019-05-26T06:02:50.514Z,13.79
2019-05-26T06:04:49.922Z,13.82
2019-05-26T06:06:50.174Z,13.85
2019-05-26T06:08:50.298Z,13.84
2019-05-26T06:10:50.357Z,13.83
2019-05-26T06:12:50.535Z,13.80
2019-05-26T06:14:50.623Z,13.83
2019-05-26T06:16:49.826Z,13.83
2019-05-26T06:18:49.955Z,13.83
2019-05-26T06:20:50.104Z,14.18
2019-05-26T06:22:50.199Z,14.23
2019-05-26T06:24:50.262Z,14.24
2019-05-26T06:26:50.428Z,14.26
2019-05-26T06:28:53.055Z,14.26
2019-05-26T06:30:50.087Z,14.48
2019-05-26T06:32:50.342Z,14.54
2019-05-26T06:34:49.740Z,14.73
2019-05-26T06:36:49.930Z,14.79
2019-05-26T06:38:50.051Z,14.97
2019-05-26T06:40:50.127Z,14.97
2019-05-26T06:42:50.182Z,15.08
2019-05-26T06:44:54.548Z,15.12
2019-05-26T06:46:49.816Z,15.17
2019-05-26T06:48:49.813Z,15.22
2019-05-26T06:50:49.949Z,15.32
2019-05-26T06:52:50.042Z,15.32
2019-05-26T06:54:50.043Z,15.51
2019-05-26T06:56:50.345Z,15.55
2019-05-26T06:58:50.626Z,15.60
2019-05-26T07:00:50.630Z,15.78
2019-05-26T07:02:49.810Z,15.83
2019-05-26T07:04:50.163Z,15.84
2019-05-26T07:06:50.518Z,15.74
2019-05-26T07:08:50.653Z,15.75
2019-05-26T07:10:50.609Z,15.76
2019-05-26T07:12:50.695Z,15.82
2019-05-26T07:14:49.732Z,15.86
2019-05-26T07:16:50.082Z,15.80
2019-05-26T07:18:50.105Z,15.72
2019-05-26T07:20:50.200Z,15.64
2019-05-26T07:22:50.293Z,15.72
2019-05-26T07:24:50.419Z,15.97
2019-05-26T07:26:50.710Z,16.05
2019-05-26T07:28:50.931Z,16.13
2019-05-26T07:30:50.162Z,16.18
2019-05-26T07:32:50.276Z,16.05
2019-05-26T07:34:49.861Z,16.09
2019-05-26T07:36:50.104Z,16.26
2019-05-26T07:38:50.263Z,16.29
2019-05-26T07:40:50.246Z,16.29
2019-05-26T07:42:50.297Z,16.41
2019-05-26T07:44:50.334Z,16.41
2019-05-26T07:46:50.603Z,16.72
2019-05-26T07:48:50.609Z,16.82
2019-05-26T07:50:50.718Z,16.93
2019-05-26T07:52:49.696Z,17.09
2019-05-26T07:54:49.822Z,17.26
2019-05-26T07:56:50.174Z,17.41
2019-05-26T07:58:50.291Z,17.58
2019-05-26T08:00:50.400Z,17.53
2019-05-26T08:02:50.513Z,17.57
2019-05-26T08:04:49.769Z,17.64
2019-05-26T08:06:49.945Z,17.74
2019-05-26T08:08:50.006Z,17.74
2019-05-26T08:10:50.109Z,17.80
2019-05-26T08:12:50.127Z,17.91
2019-05-26T08:14:50.299Z,17.96
2019-05-26T08:16:50.503Z,18.01
2019-05-26T08:18:50.618Z,18.10
2019-05-26T08:20:49.733Z,17.99
2019-05-26T08:22:49.856Z,17.91
2019-05-26T08:24:49.903Z,18.07
2019-05-26T08:26:50.050Z,18.14
2019-05-26T08:28:50.208Z,18.25
2019-05-26T08:30:50.211Z,18.44
2019-05-26T08:32:50.366Z,18.58
2019-05-26T08:34:49.781Z,18.67
2019-05-26T08:36:50.021Z,18.60
2019-05-26T08:38:50.094Z,18.73
2019-05-26T08:40:50.047Z,18.73
2019-05-26T08:42:50.198Z,18.57
2019-05-26T08:44:50.266Z,18.51
2019-05-26T08:46:50.464Z,18.39
2019-05-26T08:48:50.524Z,18.43
2019-05-26T08:50:49.748Z,18.50
2019-05-26T08:52:49.990Z,18.85
2019-05-26T08:54:50.177Z,19.17
2019-05-26T08:56:50.571Z,19.4
2019-05-26T08:58:49.779Z,19.4
2019-05-26T09:00:49.968Z,19.23
2019-05-26T09:02:50.261Z,19.21
2019-05-26T09:04:50.653Z,19.44
2019-05-26T09:06:49.983Z,19.6
2019-05-26T09:08:50.104Z,19.60
2019-05-26T09:10:50.211Z,19.7
2019-05-26T09:13:01.933Z,19.8
2019-05-26T09:14:50.476Z,19.8
2019-05-26T09:16:49.741Z,19.9
2019-05-26T09:18:49.792Z,19.9
2019-05-26T09:20:49.799Z,19.59
2019-05-26T09:22:49.930Z,19.59
2019-05-26T09:24:50.016Z,19.59
2019-05-26T09:26:50.249Z,19.74
2019-05-26T09:28:50.418Z,19.70
2019-05-26T09:30:50.491Z,19.47
2019-05-26T09:32:50.614Z,19.51
2019-05-26T09:34:50.091Z,19.66
2019-05-26T09:36:50.321Z,19.80
2019-05-26T09:38:50.401Z,19.9
2019-05-26T09:40:50.451Z,19.9
2019-05-26T09:42:50.647Z,20.0
2019-05-26T09:44:49.721Z,20.0
2019-05-26T09:46:50.091Z,20.0
2019-05-26T09:48:50.163Z,20.1
2019-05-26T09:50:50.214Z,20.1
2019-05-26T09:52:50.256Z,20.1
2019-05-26T09:54:50.309Z,20.2
2019-05-26T09:56:50.538Z,20.2
2019-05-26T09:58:50.639Z,20.2
2019-05-26T10:00:50.751Z,20.3
2019-05-26T10:02:49.792Z,20.3
2019-05-26T10:04:50.180Z,20.3
2019-05-26T10:06:50.417Z,20.4
2019-05-26T10:08:50.560Z,20.4
2019-05-26T10:10:49.912Z,20.5
2019-05-26T10:12:49.985Z,20.5
2019-05-26T10:14:50.115Z,20.6
2019-05-26T10:16:50.370Z,20.6
2019-05-26T10:18:50.437Z,20.7
2019-05-26T10:20:50.503Z,20.8
2019-05-26T10:22:50.657Z,20.9
2019-05-26T10:24:50.516Z,21.0
2019-05-26T10:26:50.557Z,21.0
2019-05-26T10:28:50.657Z,21.0
2019-05-26T10:30:49.757Z,21.1
2019-05-26T10:32:49.714Z,21.2
2019-05-26T10:34:50.302Z,21.2
2019-05-26T10:36:50.430Z,21.2
2019-05-26T10:38:50.455Z,21.3
2019-05-26T10:40:50.537Z,21.4
2019-05-26T10:42:50.591Z,21.4
2019-05-26T10:44:49.727Z,21.5
2019-05-26T10:46:49.913Z,21.6
2019-05-26T10:48:49.927Z,21.6
2019-05-26T10:50:49.981Z,21.6
2019-05-26T10:52:50.040Z,21.7
2019-05-26T10:54:50.135Z,21.7
2019-05-26T10:56:50.370Z,21.7
2019-05-26T10:58:50.411Z,21.8
2019-05-26T11:00:50.415Z,21.8
2019-05-26T11:02:50.464Z,21.8
2019-05-26T11:04:49.818Z,21.8
2019-05-26T11:06:50.037Z,21.8
2019-05-26T11:08:50.112Z,22.0
2019-05-26T11:10:50.254Z,22.0
2019-05-26T11:12:50.320Z,22.1
2019-05-26T11:14:50.446Z,22.1
2019-05-26T11:16:50.596Z,22.2
2019-05-26T11:18:50.363Z,22.3
2019-05-26T11:20:50.434Z,22.2
2019-05-26T11:22:50.510Z,22.2
2019-05-26T11:24:50.483Z,22.2
2019-05-26T11:26:49.882Z,22.2
2019-05-26T11:28:49.955Z,22.2
2019-05-26T11:30:50.059Z,22.2
2019-05-26T11:32:50.039Z,22.2
2019-05-26T11:35:10.463Z,22.2
2019-05-26T11:36:50.273Z,22.3
2019-05-26T11:38:50.351Z,22.4
2019-05-26T11:40:50.558Z,22.4
2019-05-26T11:42:49.704Z,22.4
2019-05-26T11:44:49.751Z,22.4
2019-05-26T11:46:49.847Z,22.4
2019-05-26T11:48:49.922Z,22.4
2019-05-26T11:50:50.130Z,22.3
2019-05-26T11:52:50.298Z,22.3
2019-05-26T11:54:50.322Z,22.4
2019-05-26T11:56:50.630Z,22.5
2019-05-26T11:58:50.668Z,22.5
2019-05-26T12:00:49.785Z,22.6
2019-05-26T12:02:49.740Z,22.6
2019-05-26T12:04:50.302Z,22.6
2019-05-26T12:06:50.569Z,22.6
2019-05-26T12:08:50.602Z,22.6
2019-05-26T12:10:50.669Z,22.7
2019-05-26T12:12:49.726Z,22.8
2019-05-26T12:14:49.958Z,22.8
2019-05-26T12:16:50.214Z,22.8
2019-05-26T12:18:50.326Z,22.8
2019-05-26T12:20:50.375Z,22.8
2019-05-26T12:22:50.490Z,22.9
2019-05-26T12:24:50.637Z,22.9
2019-05-26T12:26:49.802Z,22.9
2019-05-26T12:28:49.915Z,22.9
2019-05-26T12:30:50.097Z,23.0
2019-05-26T12:32:50.209Z,23.1
2019-05-26T12:34:50.683Z,23.2
2019-05-26T12:36:50.108Z,23.3
2019-05-26T12:38:50.256Z,23.3
2019-05-26T12:40:50.283Z,23.4
2019-05-26T12:42:50.364Z,23.5
2019-05-26T12:44:50.582Z,23.5
2019-05-26T12:46:49.891Z,23.5
2019-05-26T12:48:49.915Z,23.5
2019-05-26T12:50:49.940Z,23.5
2019-05-26T12:52:49.997Z,23.6
2019-05-26T12:54:50.127Z,23.6
2019-05-26T12:56:50.370Z,23.6
2019-05-26T12:58:50.579Z,23.8
2019-05-26T13:00:55.757Z,23.8
2019-05-26T13:02:49.949Z,23.8
2019-05-26T13:04:50.480Z,23.8
2019-05-26T13:06:50.638Z,23.8
2019-05-26T13:08:50.354Z,23.8
2019-05-26T13:10:50.013Z,23.66
2019-05-26T13:12:50.298Z,23.45
2019-05-26T13:15:06.716Z,23.8
2019-05-26T13:16:50.017Z,23.8
2019-05-26T13:18:50.071Z,23.8
2019-05-26T13:20:50.204Z,23.7
2019-05-26T13:22:50.281Z,23.7
2019-05-26T13:24:50.351Z,23.7
2019-05-26T13:26:50.469Z,23.7
2019-05-26T13:28:50.466Z,23.8
2019-05-26T13:30:50.493Z,23.9
2019-05-26T13:32:50.530Z,23.9
2019-05-26T13:34:49.994Z,23.9
2019-05-26T13:36:50.238Z,23.9
2019-05-26T13:38:50.334Z,24.0
2019-05-26T13:40:50.473Z,24.0
2019-05-26T13:42:50.587Z,23.9
2019-05-26T13:44:50.543Z,23.9
2019-05-26T13:46:50.680Z,23.9
2019-05-26T13:48:49.807Z,24.0
2019-05-26T13:50:49.956Z,24.0
2019-05-26T13:52:50.017Z,24.1
2019-05-26T13:54:50.041Z,24.0
2019-05-26T13:56:50.226Z,24.0
2019-05-26T13:58:50.364Z,23.9
2019-05-26T14:00:50.386Z,23.9
2019-05-26T14:02:50.602Z,23.9
2019-05-26T14:04:50.075Z,23.9
2019-05-26T14:06:50.319Z,23.8
2019-05-26T14:08:50.445Z,23.9
2019-05-26T14:10:50.529Z,23.9
2019-05-26T14:12:50.569Z,23.8
2019-05-26T14:14:50.580Z,23.8
2019-05-26T14:16:49.844Z,23.9
2019-05-26T14:18:49.884Z,23.9
2019-05-26T14:20:49.883Z,23.9
2019-05-26T14:22:50.138Z,23.9
2019-05-26T14:24:54.730Z,24.0
2019-05-26T14:26:50.043Z,24.0
2019-05-26T14:28:50.019Z,24.0
2019-05-26T14:30:50.151Z,24.0
2019-05-26T14:32:50.180Z,24.0
2019-05-26T14:34:50.548Z,24.0
2019-05-26T14:36:49.737Z,23.9
2019-05-26T14:38:49.817Z,23.8
2019-05-26T14:40:49.823Z,23.9
2019-05-26T14:42:49.905Z,23.9
2019-05-26T14:44:49.959Z,24.0
2019-05-26T14:46:50.075Z,23.9
2019-05-26T14:48:50.120Z,24.0
2019-05-26T14:50:50.174Z,24.1
2019-05-26T14:52:50.202Z,24.1
2019-05-26T14:54:50.305Z,24.2
2019-05-26T14:56:50.615Z,24.2
2019-05-26T14:58:49.690Z,24.2
2019-05-26T15:00:49.695Z,24.2
2019-05-26T15:02:49.703Z,24.2
2019-05-26T15:04:50.134Z,24.1
2019-05-26T15:06:50.298Z,24.1
2019-05-26T15:08:50.460Z,24.1
2019-05-26T15:10:50.637Z,24.0
2019-05-26T15:12:49.807Z,24.0
2019-05-26T15:14:49.982Z,24.0
2019-05-26T15:16:50.205Z,24.0
2019-05-26T15:18:50.448Z,24.0
2019-05-26T15:20:50.700Z,24.0
2019-05-26T15:22:50.082Z,23.9
2019-05-26T15:24:50.333Z,24.0
2019-05-26T15:26:50.661Z,24.0
2019-05-26T15:28:49.814Z,23.9
2019-05-26T15:30:49.962Z,23.8
2019-05-26T15:32:50.293Z,23.8
2019-05-26T15:34:49.980Z,23.8
2019-05-26T15:36:50.209Z,23.8
2019-05-26T15:38:50.368Z,23.8
2019-05-26T15:40:50.501Z,23.8
2019-05-26T15:42:50.682Z,23.9
2019-05-26T15:44:49.797Z,23.9
2019-05-26T15:46:50.168Z,23.9
2019-05-26T15:48:50.353Z,23.9
2019-05-26T15:50:50.466Z,23.9
2019-05-26T15:52:50.638Z,24.0
2019-05-26T15:54:49.874Z,24.0
2019-05-26T15:56:50.193Z,24.1
2019-05-26T15:58:50.324Z,24.1
2019-05-26T16:00:50.512Z,24.1
2019-05-26T16:02:50.647Z,24.1
2019-05-26T16:04:50.250Z,24.1
2019-05-26T16:06:50.613Z,24.1
2019-05-26T16:08:49.783Z,24.2
2019-05-26T16:10:49.876Z,24.2
2019-05-26T16:12:49.975Z,24.2
2019-05-26T16:14:50.078Z,24.3
2019-05-26T16:16:51.827Z,24.3
2019-05-26T16:18:49.871Z,24.3
2019-05-26T16:21:03.854Z,24.3
2019-05-26T16:22:50.183Z,24.4
2019-05-26T16:24:50.299Z,24.4
2019-05-26T16:26:50.473Z,24.4
2019-05-26T16:28:50.493Z,24.5
2019-05-26T16:30:50.557Z,24.6
2019-05-26T16:32:50.636Z,24.6
2019-05-26T16:34:50.189Z,24.6
2019-05-26T16:36:50.262Z,24.7
2019-05-26T16:38:50.307Z,24.7
2019-05-26T16:40:50.496Z,24.7
2019-05-26T16:42:50.470Z,24.8
2019-05-26T16:44:50.490Z,24.8
2019-05-26T16:46:57.425Z,24.8
2019-05-26T16:48:55.285Z,24.7
2019-05-26T16:50:50.467Z,24.7
2019-05-26T16:52:55.077Z,24.7
2019-05-26T16:54:50.148Z,24.7
2019-05-26T16:56:50.321Z,24.6
2019-05-26T16:58:50.367Z,24.6
2019-05-26T17:00:50.478Z,24.46
2019-05-26T17:02:50.614Z,24.04
2019-05-26T17:04:49.899Z,23.43
2019-05-26T17:06:50.216Z,23.08
2019-05-26T17:08:50.219Z,22.80
2019-05-26T17:10:50.318Z,22.58
2019-05-26T17:12:50.416Z,22.43
2019-05-26T17:14:50.551Z,22.26
2019-05-26T17:16:49.857Z,22.20
2019-05-26T17:18:50.131Z,22.14
2019-05-26T17:20:50.357Z,21.99
2019-05-26T17:22:50.551Z,21.81
2019-05-26T17:24:50.568Z,21.81
2019-05-26T17:26:49.832Z,21.59
2019-05-26T17:28:49.950Z,21.53
2019-05-26T17:30:50.007Z,21.36
2019-05-26T17:32:50.108Z,21.24
2019-05-26T17:34:49.745Z,21.17
2019-05-26T17:36:50.050Z,21.09
2019-05-26T17:38:50.203Z,21.03
2019-05-26T17:40:50.277Z,21.00
2019-05-26T17:42:50.448Z,20.94
2019-05-26T17:44:50.552Z,20.90
2019-05-26T17:46:49.944Z,20.84
2019-05-26T17:48:50.068Z,20.82
2019-05-26T17:50:50.266Z,20.80
2019-05-26T17:52:50.457Z,20.75
2019-05-26T17:54:50.644Z,20.75
2019-05-26T17:56:50.292Z,20.71
2019-05-26T17:58:50.600Z,20.68
2019-05-26T18:00:49.828Z,20.63
2019-05-26T18:02:50.373Z,20.59
2019-05-26T18:04:50.064Z,20.54
2019-05-26T18:06:50.317Z,20.50
2019-05-26T18:08:50.431Z,20.46
2019-05-26T18:10:50.507Z,20.40
2019-05-26T18:12:50.687Z,20.37
2019-05-26T18:14:49.976Z,20.29
2019-05-26T18:16:50.502Z,20.23
2019-05-26T18:18:49.839Z,20.18
2019-05-26T18:20:49.988Z,20.13
2019-05-26T18:22:50.348Z,20.07
2019-05-26T18:24:59.690Z,20.06
2019-05-26T18:26:50.123Z,19.99
2019-05-26T18:28:50.305Z,19.96
2019-05-26T18:30:50.293Z,19.90
2019-05-26T18:32:50.651Z,19.88
2019-05-26T18:34:50.319Z,19.81
2019-05-26T18:36:50.530Z,19.76
2019-05-26T18:38:50.676Z,19.74
2019-05-26T18:40:49.867Z,19.67
2019-05-26T18:42:50.131Z,19.63
2019-05-26T18:44:50.231Z,19.57
2019-05-26T18:46:54.106Z,19.47
2019-05-26T18:48:50.169Z,19.41
2019-05-26T18:50:50.246Z,19.37
2019-05-26T18:52:50.324Z,19.30
2019-05-26T18:54:50.487Z,19.14
2019-05-26T18:56:49.750Z,19.03
2019-05-26T18:58:49.735Z,18.98
2019-05-26T19:00:50.753Z,18.90
2019-05-26T19:02:49.853Z,18.84
2019-05-26T19:04:50.440Z,18.79
2019-05-26T19:06:49.730Z,18.77
2019-05-26T19:08:49.769Z,18.68
2019-05-26T19:10:49.949Z,18.63
2019-05-26T19:12:50.113Z,18.56
2019-05-26T19:14:50.201Z,18.53
2019-05-26T19:16:50.509Z,18.39
2019-05-26T19:18:50.552Z,18.33
2019-05-26T19:20:50.622Z,18.18
2019-05-26T19:22:53.719Z,18.13
2019-05-26T19:24:49.839Z,17.93
2019-05-26T19:26:50.166Z,17.79
2019-05-26T19:28:50.236Z,17.70
2019-05-26T19:30:50.375Z,17.70
2019-05-26T19:32:50.829Z,17.45
2019-05-26T19:34:50.350Z,17.38
2019-05-26T19:36:50.660Z,17.26
2019-05-26T19:38:49.765Z,17.14
2019-05-26T19:40:49.910Z,17.01
2019-05-26T19:42:50.094Z,16.89
2019-05-26T19:44:50.236Z,16.80
2019-05-26T19:46:53.609Z,16.70
2019-05-26T19:48:49.795Z,16.62
2019-05-26T19:50:49.816Z,16.58
2019-05-26T19:52:50.575Z,16.57
2019-05-26T19:54:50.574Z,16.48
2019-05-26T19:56:49.913Z,16.39
2019-05-26T19:58:50.058Z,16.33
2019-05-26T20:00:50.056Z,16.25
2019-05-26T20:02:50.093Z,16.22
2019-05-26T20:04:50.478Z,16.05
2019-05-26T20:06:49.734Z,16.05
2019-05-26T20:08:49.772Z,15.89
2019-05-26T20:10:49.807Z,15.81
2019-05-26T20:12:49.891Z,15.72
2019-05-26T20:14:49.913Z,15.68
2019-05-26T20:16:50.246Z,15.59
2019-05-26T20:18:50.382Z,15.55
2019-05-26T20:20:50.476Z,15.49
2019-05-26T20:22:50.710Z,15.42
2019-05-26T20:24:49.711Z,15.36
2019-05-26T20:26:49.994Z,15.28
2019-05-26T20:28:50.031Z,15.23
2019-05-26T20:30:50.173Z,15.23
2019-05-26T20:32:50.335Z,15.20
2019-05-26T20:34:50.095Z,15.18
2019-05-26T20:36:50.269Z,15.14
2019-05-26T20:38:50.307Z,15.09
2019-05-26T20:40:50.501Z,15.03
2019-05-26T20:42:50.494Z,14.95
2019-05-26T20:44:50.576Z,14.89
2019-05-26T20:46:49.888Z,14.83
2019-05-26T20:48:50.028Z,14.80
2019-05-26T20:50:50.101Z,14.70
2019-05-26T20:52:50.419Z,14.63
2019-05-26T20:54:49.787Z,14.57
2019-05-26T20:56:49.934Z,14.49
2019-05-26T20:58:49.951Z,14.40
2019-05-26T21:00:53.689Z,14.34
2019-05-26T21:02:49.751Z,14.26
2019-05-26T21:04:50.286Z,14.22
2019-05-26T21:06:50.629Z,14.14
2019-05-26T21:08:49.727Z,14.09
2019-05-26T21:10:49.804Z,14.01
2019-05-26T21:12:49.993Z,13.95
2019-05-26T21:14:50.050Z,13.89
2019-05-26T21:16:50.316Z,13.82
2019-05-26T21:18:50.372Z,13.74
2019-05-26T21:20:50.519Z,13.66
2019-05-26T21:22:50.629Z,13.63
2019-05-26T21:24:50.342Z,13.53
2019-05-26T21:26:50.606Z,13.51
2019-05-26T21:28:50.882Z,13.44
2019-05-26T21:30:49.961Z,13.41
2019-05-26T21:32:50.016Z,13.36
2019-05-26T21:34:50.531Z,13.34
2019-05-26T21:36:49.721Z,13.32
2019-05-26T21:38:49.914Z,13.29
2019-05-26T21:40:50.261Z,13.25
2019-05-26T21:42:50.494Z,13.20
2019-05-26T21:44:49.764Z,13.18
2019-05-26T21:46:50.022Z,13.13
2019-05-26T21:48:50.114Z,13.05
2019-05-26T21:50:50.234Z,13.02
2019-05-26T21:52:50.351Z,12.93
2019-05-26T21:54:50.488Z,12.89
2019-05-26T21:56:49.788Z,12.85
2019-05-26T21:58:49.846Z,12.83
2019-05-26T22:00:49.795Z,12.80
2019-05-26T22:02:50.093Z,12.76
2019-05-26T22:04:49.751Z,12.75
2019-05-26T22:06:49.932Z,12.74
2019-05-26T22:08:49.976Z,12.71
2019-05-26T22:10:50.051Z,12.67
2019-05-26T22:12:50.181Z,12.66
2019-05-26T22:14:50.285Z,12.65
2019-05-26T22:16:50.469Z,12.61
2019-05-26T22:18:50.825Z,12.59
2019-05-26T22:20:49.874Z,12.58
2019-05-26T22:22:50.036Z,12.57
2019-05-26T22:24:50.033Z,12.54
2019-05-26T22:26:50.241Z,12.53
2019-05-26T22:28:50.357Z,12.49
2019-05-26T22:30:50.375Z,12.45
2019-05-26T22:32:50.400Z,12.44
2019-05-26T22:34:49.749Z,12.42
2019-05-26T22:36:49.867Z,12.41
2019-05-26T22:38:49.820Z,12.40
2019-05-26T22:40:49.764Z,12.41
2019-05-26T22:42:49.854Z,12.41
2019-05-26T22:44:49.900Z,12.39
2019-05-26T22:46:50.016Z,12.37
2019-05-26T22:48:49.983Z,12.38
2019-05-26T22:50:49.954Z,12.40
2019-05-26T22:52:49.973Z,12.40
2019-05-26T22:54:49.884Z,12.36
2019-05-26T22:56:49.992Z,12.34
2019-05-26T22:58:49.982Z,12.31
2019-05-26T23:00:50.028Z,12.30
2019-05-26T23:02:49.938Z,12.28
2019-05-26T23:04:50.375Z,12.26
2019-05-26T23:06:49.743Z,12.25
2019-05-26T23:08:49.720Z,12.22
2019-05-26T23:10:50.645Z,12.21
2019-05-26T23:12:50.660Z,12.22
2019-05-26T23:14:50.516Z,12.23
2019-05-26T23:16:50.647Z,12.23
2019-05-26T23:18:50.609Z,12.27
2019-05-26T23:20:50.682Z,12.30
2019-05-26T23:22:49.805Z,12.32
2019-05-26T23:24:49.710Z,12.36
2019-05-26T23:26:49.748Z,12.42
2019-05-26T23:28:49.794Z,12.47
2019-05-26T23:30:49.798Z,12.50
2019-05-26T23:32:49.776Z,12.55
2019-05-26T23:34:50.090Z,12.57
2019-05-26T23:36:50.138Z,12.62
2019-05-26T23:38:50.048Z,12.65
2019-05-26T23:40:50.039Z,12.67
2019-05-26T23:42:49.980Z,12.67
2019-05-26T23:44:49.899Z,12.69
2019-05-26T23:46:49.910Z,12.72
2019-05-26T23:48:49.892Z,12.74
2019-05-26T23:50:49.793Z,12.76
2019-05-26T23:52:49.835Z,12.77
2019-05-26T23:54:49.859Z,12.78
2019-05-26T23:56:49.907Z,12.79
2019-05-26T23:58:49.934Z,12.79
